• Join FlightAware (Why Join?)
  • Login
  • US Flag 
10:59AM EDT


 

Airport Tracker/Info


-or-


 

Live Flight TrackerFlight Track Log ✈ CTL14 ✈ 01-May-2013 ✈ KBAK - KBMI

Flight Track Log - Related Links

Times and Time Zones

All times are in EDT time to prevent confusion due to time zone crossing. See the CTL14 flight status page for this flight to view local times or setup timezone preferences in your user account.

Time Position Orientation Groundspeed Altitude Reporting Facility
EDT Latitude Longitude Course Direction KTS MPH feet Rate Location/Type
09:07PM 39.2833 -85.9000 339° North 110 127 1,100  Level Indianapolis TRACON
09:08PM 39.3167 -85.9167 339° North 123 142 2,000 840 Climbing Indianapolis TRACON
09:09PM 39.3428 -85.9200 354° North 132 152 2,700 840 Climbing Indianapolis Center
09:10PM 39.3828 -85.9256 354° North 140 161 3,600 600 Climbing Indianapolis Center
09:11PM 39.4244 -85.9333 352° North 145 167 4,000 180 Climbing Indianapolis Center
09:12PM 39.4408 -85.9889 291° West 160 184 4,000  Level Indianapolis Center
09:13PM 39.4628 -86.0456 297° West 175 201 4,000  Level Indianapolis Center
09:14PM 39.4856 -86.1044 297° West 178 205 4,000  Level Indianapolis Center
09:15PM 39.4914 -86.1672 277° West 177 204 4,000  Level Indianapolis Center
09:16PM 39.4972 -86.2306 277° West 176 203 4,000  Level Indianapolis Center
09:17PM 39.5056 -86.2944 280° West 178 205 4,000  Level Indianapolis Center
09:18PM 39.5092 -86.3575 274° West 175 201 4,000  Level Indianapolis Center
09:19PM 39.5144 -86.4203 276° West 174 200 4,100  Climbing Indianapolis Center
09:20PM 39.5331 -86.4783 293° West 174 200 4,000 -60 Descending Indianapolis Center
09:21PM 39.5553 -86.5369 296° West 177 204 4,000  Level Indianapolis Center
09:22PM 39.5775 -86.5942 297° West 177 204 4,000  Level Indianapolis Center
09:23PM 39.6006 -86.6522 297° West 179 206 4,000  Level Indianapolis Center
09:24PM 39.6281 -86.7192 298° West 178 205 4,000  Level Indianapolis Center
09:25PM 39.6558 -86.7742 303° West 180 207 4,100  Climbing Indianapolis Center
09:26PM 39.6783 -86.8325 297° West 179 206 4,000 -60 Descending Indianapolis Center
09:27PM 39.6994 -86.8903 295° West 177 204 4,000  Level Indianapolis Center
09:28PM 39.7233 -86.9467 299° West 177 204 4,000  Level Indianapolis Center
09:29PM 39.7453 -87.0028 297° West 175 201 4,100  Climbing Indianapolis Center
09:30PM 39.7653 -87.0603 294° West 173 199 4,000 -60 Descending Indianapolis Center
09:31PM 39.7883 -87.1175 298° West 176 203 4,000  Level Indianapolis Center
09:32PM 39.8128 -87.1747 299° West 178 205 4,000  Level Indianapolis Center
09:33PM 39.8353 -87.2331 297° West 178 205 4,000  Level Indianapolis Center
09:34PM 39.8569 -87.2908 296° West 178 205 4,000  Level Indianapolis Center
09:35PM 39.8800 -87.3486 297° West 178 205 4,000 -60 Level Indianapolis Center
09:36PM 39.9033 -87.4058 298° West 178 205 3,900  Descending Indianapolis Center
09:37PM 39.9289 -87.4742 296° West 178 205 4,000  Climbing Indianapolis Center
09:38PM 39.9506 -87.5331 296° West 179 206 4,000  Level Indianapolis Center
09:39PM 39.9731 -87.5922 296° West 179 206 4,100  Climbing Indianapolis Center
09:40PM 39.9958 -87.6500 297° West 179 206 4,100  Level Indianapolis Center
09:41PM 40.0189 -87.7094 297° West 180 207 4,100 -60 Level Indianapolis Center
09:42PM 40.0392 -87.7667 295° West 182 209 4,000 -60 Descending Indianapolis Center
09:45PM 40.0983 -87.9067 299° West 178 205 4,000  Level Chicago Center
09:46PM 40.1203 -87.9658 296° West 179 206 4,000  Level Chicago Center
09:47PM 40.1428 -88.0233 297° West 179 206 4,000  Level Chicago Center
09:48PM 40.1644 -88.0839 295° West 179 206 4,000  Level Chicago Center
09:49PM 40.1864 -88.1406 297° West 176 203 4,000  Level Chicago Center
09:50PM 40.2106 -88.2086 295° West 176 203 4,000  Level Chicago Center
09:51PM 40.2325 -88.2647 297° West 175 201 4,000  Level Chicago Center
09:52PM 40.2539 -88.3225 296° West 176 203 4,000  Level Chicago Center
09:53PM 40.2750 -88.3789 296° West 175 201 4,000  Level Chicago Center
09:54PM 40.2972 -88.4353 297° West 175 201 4,000  Level Chicago Center
09:55PM 40.3181 -88.4933 295° West 175 201 4,100  Climbing Chicago Center
09:56PM 40.3406 -88.5539 296° West 175 201 4,000 -240 Descending Chicago Center
09:57PM 40.3633 -88.6125 297° West 178 205 3,700 -360 Descending Chicago Center
09:58PM 40.3906 -88.6706 302° West 185 213 3,300 -420 Descending Chicago Center
09:59PM 40.4167 -88.7297 300° West 187 215 2,900 -540 Descending Chicago Center
10:00PM 40.4408 -88.7900 298° West 188 216 2,300 -720 Descending Chicago Center
10:01PM 40.4642 -88.8578 294° West 179 206 1,500 -600 Descending Chicago Center
10:02PM 40.4756 -88.8994 290° West 162 186 1,200 -300 Descending Chicago Center
10:04PM 40.4667 -88.9000 303° West  Level FlightAware Approximate
10:11PM 40.4771 -88.9159 303° West  Level Estimated
10:12PM 40.4771 -88.9159 303° West  Level Estimated